createdAt,value
2023-05-23T00:00:09.187Z,100.00
2023-05-23T00:02:35.764Z,100.00
2023-05-23T00:05:03.683Z,100.00
2023-05-23T00:07:32.458Z,100.00
2023-05-23T00:09:59.003Z,100.00
2023-05-23T00:12:25.672Z,100.00
2023-05-23T00:14:53.645Z,100.00
2023-05-23T00:17:21.926Z,100.00
2023-05-23T00:19:49.011Z,100.00
2023-05-23T00:22:16.757Z,100.00
2023-05-23T00:24:44.012Z,100.00
2023-05-23T00:27:10.629Z,100.00
2023-05-23T00:29:37.168Z,100.00
2023-05-23T00:32:03.830Z,100.00
2023-05-23T00:34:30.365Z,100.00
2023-05-23T00:36:58.206Z,100.00
2023-05-23T00:39:24.766Z,100.00
2023-05-23T00:41:52.917Z,100.00
2023-05-23T00:44:21.166Z,100.00
2023-05-23T00:46:55.481Z,100.00
2023-05-23T00:49:22.378Z,100.00
2023-05-23T00:51:50.057Z,100.00
2023-05-23T00:54:28.719Z,100.00
2023-05-23T00:56:56.074Z,100.00
2023-05-23T00:59:26.795Z,100.00
2023-05-23T01:01:55.886Z,100.00
2023-05-23T01:04:26.409Z,100.00
2023-05-23T01:06:54.864Z,100.00
2023-05-23T01:09:22.421Z,100.00
2023-05-23T01:12:12.411Z,100.00
2023-05-23T01:14:49.403Z,100.00
2023-05-23T01:17:21.704Z,100.00
2023-05-23T01:20:10.243Z,100.00
2023-05-23T01:23:02.759Z,100.00
2023-05-23T01:25:59.342Z,100.00
2023-05-23T01:28:43.528Z,100.00
2023-05-23T01:31:11.106Z,100.00
2023-05-23T01:33:40.168Z,100.00
2023-05-23T01:36:08.028Z,100.00
2023-05-23T01:38:34.613Z,100.00
2023-05-23T01:41:01.176Z,100.00
2023-05-23T01:43:27.797Z,100.00
2023-05-23T01:45:56.731Z,100.00
2023-05-23T01:48:26.073Z,100.00
2023-05-23T01:50:53.369Z,100.00
2023-05-23T01:53:22.493Z,100.00
2023-05-23T01:55:49.401Z,100.00
2023-05-23T01:58:15.940Z,100.00
2023-05-23T02:00:42.494Z,100.00
2023-05-23T02:03:09.318Z,100.00
2023-05-23T02:05:36.151Z,100.00
2023-05-23T02:08:02.652Z,100.00
2023-05-23T02:10:29.190Z,100.00
2023-05-23T02:12:55.670Z,100.00
2023-05-23T02:15:22.202Z,100.00
2023-05-23T02:17:48.719Z,100.00
2023-05-23T02:20:15.384Z,100.00
2023-05-23T02:22:41.875Z,100.00
2023-05-23T02:25:08.743Z,100.00
2023-05-23T02:27:35.380Z,100.00
2023-05-23T02:30:01.995Z,100.00
2023-05-23T02:32:29.672Z,100.00
2023-05-23T02:34:57.447Z,100.00
2023-05-23T02:37:24.266Z,100.00
2023-05-23T02:39:50.760Z,100.00
2023-05-23T02:42:17.224Z,100.00
2023-05-23T02:44:43.778Z,100.00
2023-05-23T02:47:10.868Z,100.00
2023-05-23T02:49:37.383Z,100.00
2023-05-23T02:52:03.919Z,100.00
2023-05-23T02:54:31.126Z,100.00
2023-05-23T02:56:58.518Z,100.00
2023-05-23T02:59:26.727Z,100.00
2023-05-23T03:01:53.481Z,100.00
2023-05-23T03:04:19.986Z,100.00
2023-05-23T03:06:47.581Z,100.00
2023-05-23T03:09:17.014Z,100.00
2023-05-23T03:11:43.923Z,100.00
2023-05-23T03:14:10.628Z,100.00
2023-05-23T03:16:37.238Z,100.00
2023-05-23T03:19:04.761Z,100.00
2023-05-23T03:21:32.962Z,100.00
2023-05-23T03:23:59.503Z,100.00
2023-05-23T03:26:26.000Z,100.00
2023-05-23T03:28:52.568Z,100.00
2023-05-23T03:31:19.176Z,100.00
2023-05-23T03:33:45.829Z,100.00
2023-05-23T03:36:12.331Z,100.00
2023-05-23T03:38:38.852Z,100.00
2023-05-23T03:41:05.499Z,100.00
2023-05-23T03:43:32.053Z,100.00
2023-05-23T03:45:59.115Z,100.00
2023-05-23T03:48:25.711Z,100.00
2023-05-23T03:50:52.231Z,100.00
2023-05-23T03:53:18.801Z,100.00
2023-05-23T03:55:45.583Z,100.00
2023-05-23T03:58:12.092Z,100.00
2023-05-23T04:00:38.651Z,100.00
2023-05-23T04:03:05.296Z,100.00
2023-05-23T04:05:32.081Z,100.00
2023-05-23T04:08:01.339Z,100.00
2023-05-23T04:10:28.030Z,100.00
2023-05-23T04:12:54.570Z,100.00
2023-05-23T04:15:22.330Z,100.00
2023-05-23T04:17:48.940Z,100.00
2023-05-23T04:20:15.694Z,100.00
2023-05-23T04:22:42.194Z,100.00
2023-05-23T04:25:09.554Z,100.00
2023-05-23T04:27:37.296Z,100.00
2023-05-23T04:30:07.371Z,100.00
2023-05-23T04:32:34.111Z,100.00
2023-05-23T04:35:02.179Z,100.00
2023-05-23T04:37:28.918Z,100.00
2023-05-23T04:39:56.615Z,100.00
2023-05-23T04:42:24.729Z,100.00
2023-05-23T04:44:52.737Z,100.00
2023-05-23T04:47:19.324Z,100.00
2023-05-23T04:49:45.851Z,100.00
2023-05-23T04:52:13.428Z,100.00
2023-05-23T04:54:44.629Z,100.00
2023-05-23T04:57:12.392Z,100.00
2023-05-23T04:59:39.511Z,100.00
2023-05-23T05:02:06.511Z,100.00
2023-05-23T05:04:33.069Z,100.00
2023-05-23T05:06:59.612Z,100.00
2023-05-23T05:09:26.212Z,100.00
2023-05-23T05:11:52.769Z,100.00
2023-05-23T05:14:19.252Z,100.00
2023-05-23T05:16:47.915Z,100.00
2023-05-23T05:19:15.143Z,100.00
2023-05-23T05:21:41.752Z,100.00
2023-05-23T05:24:11.176Z,100.00
2023-05-23T05:26:37.750Z,100.00
2023-05-23T05:29:04.409Z,100.00
2023-05-23T05:31:31.092Z,100.00
2023-05-23T05:33:57.746Z,100.00
2023-05-23T05:36:24.356Z,100.00
2023-05-23T05:38:51.257Z,100.00
2023-05-23T05:41:17.839Z,100.00
2023-05-23T05:43:44.343Z,100.00
2023-05-23T05:46:11.525Z,100.00
2023-05-23T05:48:38.075Z,100.00
2023-05-23T05:51:04.847Z,100.00
2023-05-23T05:53:31.358Z,100.00
2023-05-23T05:55:57.928Z,100.00
2023-05-23T05:58:24.451Z,100.00
2023-05-23T06:00:50.997Z,100.00
2023-05-23T06:03:18.146Z,100.00
2023-05-23T06:05:44.811Z,100.00
2023-05-23T06:08:11.589Z,98.31
2023-05-23T06:10:39.862Z,96.12
2023-05-23T06:13:06.714Z,93.26
2023-05-23T06:15:33.304Z,94.80
2023-05-23T06:17:59.863Z,93.47
2023-05-23T06:20:26.627Z,90.53
2023-05-23T06:22:53.260Z,90.81
2023-05-23T06:25:19.963Z,91.21
2023-05-23T06:27:46.452Z,87.98
2023-05-23T06:30:13.798Z,86.55
2023-05-23T06:32:41.350Z,85.46
2023-05-23T06:35:08.360Z,86.55
2023-05-23T06:37:35.066Z,86.49
2023-05-23T06:40:01.806Z,87.34
2023-05-23T06:42:28.329Z,88.66
2023-05-23T06:44:54.908Z,89.45
2023-05-23T06:47:21.484Z,89.58
2023-05-23T06:49:48.033Z,89.06
2023-05-23T06:52:14.554Z,88.56
2023-05-23T06:54:41.309Z,89.14
2023-05-23T06:57:07.844Z,88.98
2023-05-23T06:59:34.343Z,89.22
2023-05-23T07:02:00.877Z,89.15
2023-05-23T07:04:27.415Z,89.91
2023-05-23T07:06:53.958Z,90.89
2023-05-23T07:09:20.607Z,89.86
2023-05-23T07:11:47.168Z,90.33
2023-05-23T07:14:13.792Z,91.39
2023-05-23T07:16:40.397Z,91.87
2023-05-23T07:19:07.127Z,91.69
2023-05-23T07:21:33.690Z,90.86
2023-05-23T07:24:00.564Z,90.24
2023-05-23T07:26:27.560Z,90.93
2023-05-23T07:28:54.169Z,92.17
2023-05-23T07:31:20.746Z,91.36
2023-05-23T07:33:47.283Z,92.12
2023-05-23T07:36:13.749Z,89.63
2023-05-23T07:38:40.298Z,88.02
2023-05-23T07:41:12.027Z,86.34
2023-05-23T07:43:39.444Z,86.28
2023-05-23T07:46:06.102Z,87.48
2023-05-23T07:48:33.228Z,86.36
2023-05-23T07:50:59.754Z,84.08
2023-05-23T07:53:26.496Z,82.60
2023-05-23T07:55:53.099Z,81.33
2023-05-23T07:58:19.648Z,77.06
2023-05-23T08:00:46.270Z,73.50
2023-05-23T08:03:13.425Z,73.15
2023-05-23T08:05:40.074Z,71.83
2023-05-23T08:08:06.630Z,74.24
2023-05-23T08:10:33.209Z,74.91
2023-05-23T08:13:00.956Z,74.67
2023-05-23T08:15:28.827Z,75.40
2023-05-23T08:17:57.383Z,73.52
2023-05-23T08:20:30.888Z,70.24
2023-05-23T08:23:01.424Z,68.46
2023-05-23T08:25:32.031Z,69.01
2023-05-23T08:27:59.419Z,66.11
2023-05-23T08:30:27.449Z,65.32
2023-05-23T08:32:55.683Z,65.46
2023-05-23T08:35:22.840Z,66.91
2023-05-23T08:37:50.908Z,67.62
2023-05-23T08:40:22.822Z,68.61
2023-05-23T08:42:50.875Z,72.51
2023-05-23T08:45:18.293Z,73.55
2023-05-23T08:47:46.059Z,74.57
2023-05-23T08:50:20.130Z,74.84
2023-05-23T08:52:55.993Z,76.89
2023-05-23T08:55:27.166Z,78.73
2023-05-23T08:57:59.323Z,80.62
2023-05-23T09:00:27.990Z,81.38
2023-05-23T09:02:54.776Z,82.89
2023-05-23T09:05:22.052Z,81.80
2023-05-23T09:07:49.256Z,85.18
2023-05-23T09:10:20.407Z,83.41
2023-05-23T09:12:47.442Z,83.62
2023-05-23T09:15:14.787Z,83.58
2023-05-23T09:17:41.714Z,83.06
2023-05-23T09:20:14.348Z,80.94
2023-05-23T09:22:41.386Z,81.25
2023-05-23T09:25:08.949Z,80.59
2023-05-23T09:27:36.125Z,79.94
2023-05-23T09:30:11.191Z,78.02
2023-05-23T09:32:38.178Z,78.00
2023-05-23T09:35:07.174Z,77.03
2023-05-23T09:37:39.258Z,75.46
2023-05-23T09:40:10.720Z,76.05
2023-05-23T09:42:44.250Z,74.67
2023-05-23T09:45:15.177Z,75.35
2023-05-23T09:47:52.215Z,75.63
2023-05-23T09:50:19.851Z,75.02
2023-05-23T09:52:47.178Z,74.12
2023-05-23T09:55:14.792Z,74.84
2023-05-23T09:57:42.802Z,71.68
2023-05-23T10:00:17.084Z,70.08
2023-05-23T10:03:01.771Z,68.15
2023-05-23T10:05:50.119Z,67.71
2023-05-23T10:08:29.980Z,64.82
2023-05-23T10:10:56.525Z,60.54
2023-05-23T10:13:26.789Z,58.89
2023-05-23T10:16:00.241Z,56.51
2023-05-23T10:18:29.992Z,56.27
2023-05-23T10:21:03.259Z,54.04
2023-05-23T10:23:29.879Z,54.10
2023-05-23T10:25:56.354Z,53.94
2023-05-23T10:28:23.038Z,54.27
2023-05-23T10:30:51.062Z,52.40
2023-05-23T10:33:18.922Z,54.35
2023-05-23T10:36:10.188Z,51.74
2023-05-23T10:38:44.107Z,50.35
2023-05-23T10:41:34.104Z,52.74
2023-05-23T10:44:27.061Z,50.48
2023-05-23T10:47:02.419Z,49.50
2023-05-23T10:49:52.428Z,48.59
2023-05-23T10:52:19.179Z,47.18
2023-05-23T10:54:54.057Z,50.07
2023-05-23T10:57:29.467Z,45.27
2023-05-23T10:59:56.251Z,44.24
2023-05-23T11:02:28.820Z,45.62
2023-05-23T11:05:24.797Z,41.92
2023-05-23T11:08:13.977Z,42.70
2023-05-23T11:10:59.466Z,46.04
2023-05-23T11:13:26.941Z,48.61
2023-05-23T11:15:53.601Z,49.12
2023-05-23T11:18:26.577Z,49.69
2023-05-23T11:20:54.621Z,52.25
2023-05-23T11:23:22.524Z,52.21
2023-05-23T11:25:52.077Z,54.47
2023-05-23T11:28:18.910Z,56.43
2023-05-23T11:30:48.875Z,56.75
2023-05-23T11:33:17.209Z,55.82
2023-05-23T11:35:47.851Z,55.73
2023-05-23T11:38:16.719Z,55.93
2023-05-23T11:40:46.241Z,57.78
2023-05-23T11:43:18.088Z,57.46
2023-05-23T11:45:46.870Z,53.90
2023-05-23T11:48:16.556Z,51.05
2023-05-23T11:50:48.510Z,50.33
2023-05-23T11:53:20.847Z,47.73
2023-05-23T11:55:55.017Z,46.57
2023-05-23T11:58:23.192Z,47.06
2023-05-23T12:00:49.975Z,45.34
2023-05-23T12:03:16.847Z,46.87
2023-05-23T12:05:45.451Z,45.69
2023-05-23T12:08:14.213Z,44.77
2023-05-23T12:11:00.367Z,43.94
2023-05-23T12:13:29.218Z,46.82
2023-05-23T12:15:56.694Z,45.55
2023-05-23T12:18:23.649Z,45.09
2023-05-23T12:20:51.536Z,42.92
2023-05-23T12:23:25.089Z,42.85
2023-05-23T12:25:55.673Z,42.10
2023-05-23T12:28:35.079Z,43.44
2023-05-23T12:31:18.967Z,42.11
2023-05-23T12:33:48.366Z,41.13
2023-05-23T12:36:22.986Z,41.78
2023-05-23T12:38:49.672Z,38.96
2023-05-23T12:41:19.809Z,39.78
2023-05-23T12:43:51.896Z,39.31
2023-05-23T12:46:19.375Z,38.40
2023-05-23T12:48:45.837Z,38.30
2023-05-23T12:51:12.381Z,39.33
2023-05-23T12:53:39.150Z,38.75
2023-05-23T12:56:06.027Z,38.72
2023-05-23T12:58:32.850Z,40.34
2023-05-23T13:00:59.447Z,38.87
2023-05-23T13:03:26.286Z,38.89
2023-05-23T13:05:53.881Z,38.04
2023-05-23T13:08:21.393Z,38.32
2023-05-23T13:10:48.266Z,39.62
2023-05-23T13:13:15.296Z,39.74
2023-05-23T13:15:42.480Z,39.69
2023-05-23T13:18:09.633Z,40.44
2023-05-23T13:20:36.167Z,39.99
2023-05-23T13:23:02.864Z,43.08
2023-05-23T13:25:29.781Z,40.89
2023-05-23T13:27:56.964Z,39.51
2023-05-23T13:30:24.783Z,39.76
2023-05-23T13:32:52.200Z,40.88
2023-05-23T13:35:18.950Z,39.67
2023-05-23T13:37:45.519Z,40.80
2023-05-23T13:40:20.266Z,40.87
2023-05-23T13:42:51.305Z,40.13
2023-05-23T13:45:18.640Z,39.67
2023-05-23T13:47:45.524Z,40.52
2023-05-23T13:50:12.181Z,40.22
2023-05-23T13:52:41.126Z,39.99
2023-05-23T13:55:10.008Z,41.70
2023-05-23T13:57:36.576Z,41.35
2023-05-23T14:00:03.733Z,42.03
2023-05-23T14:02:32.190Z,42.36
2023-05-23T14:04:58.972Z,41.95
2023-05-23T14:07:25.577Z,43.79
2023-05-23T14:09:52.192Z,43.21
2023-05-23T14:12:18.822Z,43.80
2023-05-23T14:14:45.343Z,42.94
2023-05-23T14:17:17.650Z,44.44
2023-05-23T14:19:44.529Z,44.19
2023-05-23T14:22:11.464Z,42.81
2023-05-23T14:24:38.087Z,43.91
2023-05-23T14:27:04.831Z,43.39
2023-05-23T14:29:31.724Z,42.69
2023-05-23T14:32:00.844Z,43.13
2023-05-23T14:34:27.586Z,44.01
2023-05-23T14:36:54.237Z,43.92
2023-05-23T14:39:20.723Z,43.85
2023-05-23T14:41:47.247Z,43.30
2023-05-23T14:44:13.806Z,45.59
2023-05-23T14:46:42.080Z,45.41
2023-05-23T14:49:08.650Z,46.79
2023-05-23T14:54:09.692Z,45.15
2023-05-23T14:56:37.735Z,46.40
2023-05-23T14:59:08.116Z,46.65
2023-05-23T15:01:35.660Z,49.39
2023-05-23T15:04:05.619Z,48.85
2023-05-23T15:06:32.399Z,49.40
2023-05-23T15:08:58.979Z,49.01
2023-05-23T15:11:27.397Z,47.61
2023-05-23T15:13:54.299Z,48.33
2023-05-23T15:16:20.959Z,49.58
2023-05-23T15:18:47.739Z,49.73
2023-05-23T15:21:14.629Z,50.94
2023-05-23T15:23:41.686Z,50.72
2023-05-23T15:26:08.365Z,51.65
2023-05-23T15:28:35.031Z,51.66
2023-05-23T15:31:01.859Z,50.85
2023-05-23T15:33:28.788Z,50.06
2023-05-23T15:35:55.898Z,50.68
2023-05-23T15:38:22.404Z,50.65
2023-05-23T15:40:49.126Z,50.32
2023-05-23T15:43:15.759Z,50.79
2023-05-23T15:45:42.446Z,49.86
2023-05-23T15:48:09.183Z,50.74
2023-05-23T15:50:35.843Z,51.56
2023-05-23T15:53:02.396Z,51.41
2023-05-23T15:55:29.017Z,50.61
2023-05-23T15:57:55.685Z,51.68
2023-05-23T16:00:22.233Z,51.82
2023-05-23T16:02:48.777Z,52.56
2023-05-23T16:05:16.418Z,53.32
2023-05-23T16:07:43.053Z,53.04
2023-05-23T16:10:09.970Z,53.46
2023-05-23T16:12:36.770Z,53.31
2023-05-23T16:15:03.546Z,53.24
2023-05-23T16:17:30.108Z,51.95
2023-05-23T16:19:56.638Z,52.38
2023-05-23T16:22:23.559Z,52.94
2023-05-23T16:24:50.048Z,53.40
2023-05-23T16:27:16.660Z,52.04
2023-05-23T16:29:43.402Z,52.85
2023-05-23T16:32:10.013Z,53.41
2023-05-23T16:34:36.725Z,56.30
2023-05-23T16:37:03.320Z,54.42
2023-05-23T16:39:29.892Z,53.55
2023-05-23T16:41:57.533Z,52.28
2023-05-23T16:44:26.165Z,53.41
2023-05-23T16:46:52.701Z,53.96
2023-05-23T16:49:19.363Z,53.41
2023-05-23T16:51:48.556Z,55.15
2023-05-23T16:54:16.083Z,56.06
2023-05-23T16:56:43.162Z,55.09
2023-05-23T16:59:09.652Z,54.54
2023-05-23T17:01:36.419Z,55.76
2023-05-23T17:04:04.676Z,55.25
2023-05-23T17:06:32.182Z,56.14
2023-05-23T17:08:58.724Z,56.57
2023-05-23T17:11:25.662Z,57.32
2023-05-23T17:13:52.298Z,57.20
2023-05-23T17:16:20.710Z,56.58
2023-05-23T17:18:47.558Z,55.64
2023-05-23T17:21:14.150Z,56.78
2023-05-23T17:23:40.793Z,56.81
2023-05-23T17:26:07.362Z,55.49
2023-05-23T17:28:33.982Z,56.61
2023-05-23T17:31:00.996Z,56.65
2023-05-23T17:33:27.781Z,56.96
2023-05-23T17:35:54.382Z,56.71
2023-05-23T17:38:21.165Z,56.68
2023-05-23T17:40:47.774Z,56.89
2023-05-23T17:43:14.366Z,57.94
2023-05-23T17:45:41.433Z,57.46
2023-05-23T17:48:07.992Z,58.14
2023-05-23T17:50:34.566Z,57.43
2023-05-23T17:53:02.787Z,58.06
2023-05-23T17:55:30.671Z,57.45
2023-05-23T17:57:57.211Z,57.66
2023-05-23T18:00:24.169Z,57.34
2023-05-23T18:02:51.905Z,56.85
2023-05-23T18:05:20.778Z,57.76
2023-05-23T18:07:47.804Z,57.52
2023-05-23T18:10:14.526Z,58.22
2023-05-23T18:12:41.361Z,58.32
2023-05-23T18:15:08.829Z,58.59
2023-05-23T18:17:35.767Z,58.47
2023-05-23T18:20:02.602Z,58.17
2023-05-23T18:22:31.725Z,57.43
2023-05-23T18:24:58.309Z,58.16
2023-05-23T18:27:25.158Z,58.91
2023-05-23T18:29:51.899Z,58.82
2023-05-23T18:32:18.543Z,58.55
2023-05-23T18:34:45.094Z,58.42
2023-05-23T18:37:11.657Z,58.48
2023-05-23T18:39:38.670Z,59.39
2023-05-23T18:42:05.763Z,59.10
2023-05-23T18:44:32.347Z,58.97
2023-05-23T18:46:58.981Z,59.16
2023-05-23T18:49:25.590Z,59.36
2023-05-23T18:51:54.368Z,59.89
2023-05-23T18:54:20.953Z,59.42
2023-05-23T18:56:47.496Z,60.03
2023-05-23T18:59:15.852Z,60.15
2023-05-23T19:01:42.705Z,60.17
2023-05-23T19:04:09.945Z,60.75
2023-05-23T19:06:36.800Z,60.56
2023-05-23T19:09:06.720Z,60.21
2023-05-23T19:11:33.283Z,60.95
2023-05-23T19:13:59.799Z,61.05
2023-05-23T19:16:26.322Z,61.30
2023-05-23T19:18:53.197Z,61.64
2023-05-23T19:21:19.810Z,61.98
2023-05-23T19:23:46.312Z,62.66
2023-05-23T19:26:13.665Z,63.37
2023-05-23T19:28:40.553Z,62.96
2023-05-23T19:31:07.940Z,62.83
2023-05-23T19:33:34.577Z,64.05
2023-05-23T19:36:01.187Z,63.67
2023-05-23T19:38:27.737Z,63.96
2023-05-23T19:40:54.397Z,64.67
2023-05-23T19:43:21.028Z,65.88
2023-05-23T19:45:48.849Z,66.94
2023-05-23T19:48:16.089Z,71.00
2023-05-23T19:50:43.442Z,72.04
2023-05-23T19:53:10.507Z,69.07
2023-05-23T19:55:37.094Z,72.05
2023-05-23T19:58:03.641Z,73.58
2023-05-23T20:00:30.191Z,72.80
2023-05-23T20:02:56.956Z,79.12
2023-05-23T20:05:23.782Z,81.14
2023-05-23T20:07:50.369Z,86.05
2023-05-23T20:10:16.959Z,89.14
2023-05-23T20:12:43.497Z,91.75
2023-05-23T20:15:10.904Z,94.34
2023-05-23T20:17:38.844Z,95.52
2023-05-23T20:20:06.375Z,96.22
2023-05-23T20:22:32.851Z,97.05
2023-05-23T20:24:59.389Z,97.59
2023-05-23T20:27:26.821Z,100.00
2023-05-23T20:29:53.371Z,100.00
2023-05-23T20:32:19.895Z,100.00
2023-05-23T20:34:46.756Z,100.00
2023-05-23T20:37:13.713Z,100.00
2023-05-23T20:39:43.836Z,100.00
2023-05-23T20:42:10.438Z,100.00
2023-05-23T20:44:38.167Z,99.88
2023-05-23T20:47:06.783Z,100.00
2023-05-23T20:49:34.802Z,100.00
2023-05-23T20:52:01.648Z,100.00
2023-05-23T20:54:28.233Z,100.00
2023-05-23T20:56:54.763Z,100.00
2023-05-23T20:59:21.645Z,100.00
2023-05-23T21:01:48.162Z,100.00
2023-05-23T21:04:16.170Z,100.00
2023-05-23T21:06:44.654Z,100.00
2023-05-23T21:09:13.605Z,100.00
2023-05-23T21:11:40.117Z,100.00
2023-05-23T21:14:06.669Z,100.00
2023-05-23T21:16:33.549Z,100.00
2023-05-23T21:19:00.369Z,100.00
2023-05-23T21:21:26.950Z,100.00
2023-05-23T21:23:53.486Z,100.00
2023-05-23T21:26:20.022Z,100.00
2023-05-23T21:28:46.483Z,100.00
2023-05-23T21:31:13.367Z,100.00
2023-05-23T21:33:39.905Z,100.00
2023-05-23T21:36:06.590Z,100.00
2023-05-23T21:38:37.349Z,100.00
2023-05-23T21:41:03.932Z,100.00
2023-05-23T21:43:30.616Z,100.00
2023-05-23T21:45:57.138Z,100.00
2023-05-23T21:48:23.717Z,100.00
2023-05-23T21:50:50.498Z,100.00
2023-05-23T21:53:17.081Z,100.00
2023-05-23T21:55:43.669Z,100.00
2023-05-23T21:58:10.279Z,100.00
2023-05-23T22:00:36.858Z,100.00
2023-05-23T22:03:03.413Z,100.00
2023-05-23T22:05:30.031Z,100.00
2023-05-23T22:07:56.453Z,100.00
2023-05-23T22:10:22.902Z,100.00
2023-05-23T22:12:49.347Z,100.00
2023-05-23T22:15:15.950Z,100.00
2023-05-23T22:17:43.717Z,100.00
2023-05-23T22:20:14.382Z,100.00
2023-05-23T22:22:40.889Z,100.00
2023-05-23T22:25:08.056Z,100.00
2023-05-23T22:27:34.539Z,100.00
2023-05-23T22:30:00.979Z,100.00
2023-05-23T22:32:27.422Z,100.00
2023-05-23T22:34:53.858Z,100.00
2023-05-23T22:37:20.680Z,100.00
2023-05-23T22:39:47.219Z,100.00
2023-05-23T22:42:13.784Z,100.00
2023-05-23T22:44:40.253Z,100.00
2023-05-23T22:47:06.831Z,100.00
2023-05-23T22:49:33.304Z,100.00
2023-05-23T22:51:59.875Z,100.00
2023-05-23T22:54:26.484Z,100.00
2023-05-23T22:56:53.160Z,99.39
2023-05-23T22:59:19.714Z,97.42
2023-05-23T23:01:46.367Z,98.91
2023-05-23T23:04:12.866Z,97.73
2023-05-23T23:06:39.355Z,95.55
2023-05-23T23:09:05.869Z,95.59
2023-05-23T23:11:32.338Z,95.06
2023-05-23T23:13:59.845Z,94.87
2023-05-23T23:16:26.346Z,94.39
2023-05-23T23:18:52.817Z,92.24
2023-05-23T23:21:19.310Z,90.25
2023-05-23T23:23:45.766Z,90.87
2023-05-23T23:26:12.343Z,92.28
2023-05-23T23:28:38.744Z,91.24
2023-05-23T23:31:05.295Z,92.54
2023-05-23T23:33:31.768Z,93.12
2023-05-23T23:35:58.360Z,92.07
2023-05-23T23:38:24.789Z,91.85
2023-05-23T23:40:51.365Z,92.96
2023-05-23T23:43:18.000Z,90.78
2023-05-23T23:45:45.209Z,91.49
2023-05-23T23:48:13.830Z,90.36
2023-05-23T23:50:40.745Z,89.41
2023-05-23T23:53:07.924Z,91.31
2023-05-23T23:55:34.524Z,90.72
2023-05-23T23:58:01.033Z,91.16
